sensor_id;sensor_type;location;lat;lon;timestamp;pressure;altitude;pressure_sealevel;temperature;humidity
3960;BME280;1994;48.640;8.894;2023-03-19T00:00:20;95831.88;;;11.40;63.37
3960;BME280;1994;48.640;8.894;2023-03-19T00:02:45;95831.09;;;11.39;63.48
3960;BME280;1994;48.640;8.894;2023-03-19T00:05:16;95836.09;;;11.46;63.63
3960;BME280;1994;48.640;8.894;2023-03-19T00:07:48;95831.38;;;11.43;62.93
3960;BME280;1994;48.640;8.894;2023-03-19T00:10:21;95832.41;;;11.42;62.82
3960;BME280;1994;48.640;8.894;2023-03-19T00:12:50;95828.31;;;11.46;63.25
3960;BME280;1994;48.640;8.894;2023-03-19T00:15:16;95832.41;;;11.42;62.94
3960;BME280;1994;48.640;8.894;2023-03-19T00:17:42;95840.69;;;11.39;62.55
3960;BME280;1994;48.640;8.894;2023-03-19T00:20:10;95841.06;;;11.26;62.68
3960;BME280;1994;48.640;8.894;2023-03-19T00:22:36;95843.41;;;11.27;63.56
3960;BME280;1994;48.640;8.894;2023-03-19T00:25:05;95846.84;;;11.33;63.28
3960;BME280;1994;48.640;8.894;2023-03-19T00:27:31;95851.44;;;11.26;63.66
3960;BME280;1994;48.640;8.894;2023-03-19T00:29:56;95844.56;;;11.15;64.09
3960;BME280;1994;48.640;8.894;2023-03-19T00:32:22;95838.56;;;11.09;64.07
3960;BME280;1994;48.640;8.894;2023-03-19T00:34:48;95843.53;;;11.16;63.90
3960;BME280;1994;48.640;8.894;2023-03-19T00:37:14;95849.75;;;11.15;64.28
3960;BME280;1994;48.640;8.894;2023-03-19T00:39:44;95849.06;;;11.24;64.18
3960;BME280;1994;48.640;8.894;2023-03-19T00:42:10;95848.19;;;11.14;64.70
3960;BME280;1994;48.640;8.894;2023-03-19T00:44:36;95863.03;;;10.97;66.44
3960;BME280;1994;48.640;8.894;2023-03-19T00:47:02;95865.31;;;10.72;68.56
3960;BME280;1994;48.640;8.894;2023-03-19T00:49:27;95875.28;;;10.42;69.82
3960;BME280;1994;48.640;8.894;2023-03-19T00:51:53;95885.28;;;10.55;69.56
3960;BME280;1994;48.640;8.894;2023-03-19T00:54:19;95890.47;;;10.55;70.01
3960;BME280;1994;48.640;8.894;2023-03-19T00:56:44;95900.16;;;10.64;70.00
3960;BME280;1994;48.640;8.894;2023-03-19T00:59:10;95911.97;;;10.39;70.45
3960;BME280;1994;48.640;8.894;2023-03-19T01:01:36;95917.66;;;10.36;71.17
3960;BME280;1994;48.640;8.894;2023-03-19T01:04:02;95915.25;;;10.51;71.97
3960;BME280;1994;48.640;8.894;2023-03-19T01:06:28;95917.81;;;10.46;73.47
3960;BME280;1994;48.640;8.894;2023-03-19T01:08:53;95922.09;;;10.57;73.93
3960;BME280;1994;48.640;8.894;2023-03-19T01:11:19;95931.91;;;10.55;73.33
3960;BME280;1994;48.640;8.894;2023-03-19T01:13:45;95933.16;;;10.69;72.90
3960;BME280;1994;48.640;8.894;2023-03-19T01:16:11;95932.34;;;10.68;73.06
3960;BME280;1994;48.640;8.894;2023-03-19T01:18:37;95935.63;;;10.80;71.63
3960;BME280;1994;48.640;8.894;2023-03-19T01:21:03;95932.34;;;10.85;73.71
3960;BME280;1994;48.640;8.894;2023-03-19T01:23:30;95939.22;;;10.96;73.96
3960;BME280;1994;48.640;8.894;2023-03-19T01:25:56;95942.94;;;11.05;74.65
3960;BME280;1994;48.640;8.894;2023-03-19T01:28:22;95943.03;;;10.72;77.22
3960;BME280;1994;48.640;8.894;2023-03-19T01:30:48;95938.59;;;10.89;79.05
3960;BME280;1994;48.640;8.894;2023-03-19T01:33:14;95953.22;;;10.95;80.91
3960;BME280;1994;48.640;8.894;2023-03-19T01:35:40;95940.41;;;10.88;81.88
3960;BME280;1994;48.640;8.894;2023-03-19T01:38:06;95932.47;;;10.95;84.35
3960;BME280;1994;48.640;8.894;2023-03-19T01:40:32;95919.88;;;11.03;85.41
3960;BME280;1994;48.640;8.894;2023-03-19T01:43:17;95902.09;;;11.12;86.76
3960;BME280;1994;48.640;8.894;2023-03-19T01:45:45;95883.59;;;11.03;89.72
3960;BME280;1994;48.640;8.894;2023-03-19T01:48:47;95881.66;;;10.94;90.39
3960;BME280;1994;48.640;8.894;2023-03-19T01:51:17;95893.75;;;11.10;90.01
3960;BME280;1994;48.640;8.894;2023-03-19T01:53:49;95899.38;;;11.02;89.71
3960;BME280;1994;48.640;8.894;2023-03-19T01:56:26;95902.97;;;10.79;90.41
3960;BME280;1994;48.640;8.894;2023-03-19T01:58:58;95914.94;;;10.64;90.56
3960;BME280;1994;48.640;8.894;2023-03-19T02:01:27;95916.78;;;10.85;89.90
3960;BME280;1994;48.640;8.894;2023-03-19T02:03:54;95904.13;;;10.88;89.15
3960;BME280;1994;48.640;8.894;2023-03-19T02:06:21;95905.53;;;10.96;88.08
3960;BME280;1994;48.640;8.894;2023-03-19T02:08:49;95909.16;;;10.95;90.65
3960;BME280;1994;48.640;8.894;2023-03-19T02:11:16;95905.84;;;10.99;90.68
3960;BME280;1994;48.640;8.894;2023-03-19T02:13:42;95901.97;;;11.02;91.25
3960;BME280;1994;48.640;8.894;2023-03-19T02:16:08;95901.19;;;11.01;89.93
3960;BME280;1994;48.640;8.894;2023-03-19T02:18:35;95898.34;;;11.03;89.84
3960;BME280;1994;48.640;8.894;2023-03-19T02:21:10;95909.38;;;10.93;87.75
3960;BME280;1994;48.640;8.894;2023-03-19T02:26:34;95913.31;;;10.96;89.42
3960;BME280;1994;48.640;8.894;2023-03-19T02:29:00;95907.63;;;10.99;88.71
3960;BME280;1994;48.640;8.894;2023-03-19T02:31:26;95915.00;;;11.07;89.23
3960;BME280;1994;48.640;8.894;2023-03-19T02:36:42;95921.31;;;10.94;88.80
3960;BME280;1994;48.640;8.894;2023-03-19T02:39:28;95921.63;;;10.98;89.29
3960;BME280;1994;48.640;8.894;2023-03-19T02:41:57;95912.81;;;10.99;89.72
3960;BME280;1994;48.640;8.894;2023-03-19T02:44:23;95909.91;;;10.95;90.30
3960;BME280;1994;48.640;8.894;2023-03-19T02:46:50;95916.38;;;10.93;90.51
3960;BME280;1994;48.640;8.894;2023-03-19T02:49:16;95913.53;;;10.94;90.15
3960;BME280;1994;48.640;8.894;2023-03-19T02:51:43;95916.44;;;10.98;88.72
3960;BME280;1994;48.640;8.894;2023-03-19T02:54:09;95914.38;;;11.00;89.88
3960;BME280;1994;48.640;8.894;2023-03-19T02:56:35;95914.88;;;10.97;90.03
3960;BME280;1994;48.640;8.894;2023-03-19T02:59:01;95910.78;;;11.01;90.98
3960;BME280;1994;48.640;8.894;2023-03-19T03:01:27;95912.81;;;10.99;89.98
3960;BME280;1994;48.640;8.894;2023-03-19T03:03:54;95916.94;;;10.78;91.17
3960;BME280;1994;48.640;8.894;2023-03-19T03:06:20;95921.34;;;10.78;90.94
3960;BME280;1994;48.640;8.894;2023-03-19T03:08:46;95926.19;;;10.91;90.71
3960;BME280;1994;48.640;8.894;2023-03-19T03:11:11;95933.25;;;10.95;91.06
3960;BME280;1994;48.640;8.894;2023-03-19T03:13:40;95923.66;;;10.96;90.04
3960;BME280;1994;48.640;8.894;2023-03-19T03:16:06;95924.50;;;10.80;89.94
3960;BME280;1994;48.640;8.894;2023-03-19T03:18:32;95924.06;;;10.88;90.81
3960;BME280;1994;48.640;8.894;2023-03-19T03:20:57;95921.97;;;10.85;91.60
3960;BME280;1994;48.640;8.894;2023-03-19T03:23:23;95921.97;;;10.85;91.25
3960;BME280;1994;48.640;8.894;2023-03-19T03:25:50;95935.63;;;10.80;91.25
3960;BME280;1994;48.640;8.894;2023-03-19T03:28:17;95932.19;;;10.75;92.02
3960;BME280;1994;48.640;8.894;2023-03-19T03:30:44;95930.34;;;10.70;91.81
3960;BME280;1994;48.640;8.894;2023-03-19T03:33:10;95929.22;;;10.50;91.69
3960;BME280;1994;48.640;8.894;2023-03-19T03:35:36;95928.94;;;10.30;92.01
3960;BME280;1994;48.640;8.894;2023-03-19T03:38:02;95921.41;;;10.28;92.25
3960;BME280;1994;48.640;8.894;2023-03-19T03:40:28;95931.75;;;10.12;91.20
3960;BME280;1994;48.640;8.894;2023-03-19T03:42:54;95927.50;;;10.06;91.02
3960;BME280;1994;48.640;8.894;2023-03-19T03:45:22;95934.91;;;10.14;90.11
3960;BME280;1994;48.640;8.894;2023-03-19T03:47:48;95930.00;;;10.01;90.62
3960;BME280;1994;48.640;8.894;2023-03-19T03:50:14;95926.38;;;10.02;90.58
3960;BME280;1994;48.640;8.894;2023-03-19T03:52:40;95924.19;;;9.94;90.88
3960;BME280;1994;48.640;8.894;2023-03-19T03:55:07;95929.56;;;10.04;90.94
3960;BME280;1994;48.640;8.894;2023-03-19T03:57:33;95927.47;;;10.17;90.72
3960;BME280;1994;48.640;8.894;2023-03-19T03:59:59;95932.53;;;10.29;90.22
3960;BME280;1994;48.640;8.894;2023-03-19T04:02:25;95940.25;;;10.24;90.71
3960;BME280;1994;48.640;8.894;2023-03-19T04:04:52;95944.00;;;10.33;91.06
3960;BME280;1994;48.640;8.894;2023-03-19T04:07:19;95942.28;;;10.38;91.06
3960;BME280;1994;48.640;8.894;2023-03-19T04:09:45;95963.09;;;10.43;91.02
3960;BME280;1994;48.640;8.894;2023-03-19T04:12:14;95950.66;;;10.45;89.36
3960;BME280;1994;48.640;8.894;2023-03-19T04:14:40;95953.50;;;10.44;89.08
3960;BME280;1994;48.640;8.894;2023-03-19T04:17:06;95959.38;;;10.39;89.09
3960;BME280;1994;48.640;8.894;2023-03-19T04:19:32;95962.53;;;10.25;89.00
3960;BME280;1994;48.640;8.894;2023-03-19T04:21:58;95961.84;;;10.01;89.89
3960;BME280;1994;48.640;8.894;2023-03-19T04:24:28;95958.38;;;9.96;90.74
3960;BME280;1994;48.640;8.894;2023-03-19T04:26:54;95958.94;;;9.98;90.73
3960;BME280;1994;48.640;8.894;2023-03-19T04:29:19;95965.03;;;9.92;90.70
3960;BME280;1994;48.640;8.894;2023-03-19T04:31:45;95963.00;;;9.94;90.82
3960;BME280;1994;48.640;8.894;2023-03-19T04:34:11;95960.72;;;9.97;90.34
3960;BME280;1994;48.640;8.894;2023-03-19T04:36:37;95961.72;;;10.08;90.55
3960;BME280;1994;48.640;8.894;2023-03-19T04:39:04;95958.78;;;10.04;90.44
3960;BME280;1994;48.640;8.894;2023-03-19T04:41:30;95957.09;;;10.10;89.49
3960;BME280;1994;48.640;8.894;2023-03-19T04:43:55;95971.59;;;10.11;90.26
3960;BME280;1994;48.640;8.894;2023-03-19T04:46:21;95968.47;;;10.09;89.37
3960;BME280;1994;48.640;8.894;2023-03-19T04:48:47;95975.94;;;9.94;89.64
3960;BME280;1994;48.640;8.894;2023-03-19T04:51:13;95967.66;;;9.80;89.75
3960;BME280;1994;48.640;8.894;2023-03-19T04:53:39;95971.72;;;9.76;89.88
3960;BME280;1994;48.640;8.894;2023-03-19T04:56:05;95963.66;;;9.73;89.63
3960;BME280;1994;48.640;8.894;2023-03-19T04:58:33;95964.44;;;9.73;89.48
3960;BME280;1994;48.640;8.894;2023-03-19T05:00:58;95983.22;;;9.69;89.86
3960;BME280;1994;48.640;8.894;2023-03-19T05:03:24;95982.78;;;9.72;89.95
3960;BME280;1994;48.640;8.894;2023-03-19T05:05:53;95984.81;;;9.70;90.31
3960;BME280;1994;48.640;8.894;2023-03-19T05:08:22;95982.97;;;9.82;90.21
3960;BME280;1994;48.640;8.894;2023-03-19T05:10:51;95987.84;;;9.95;89.74
3960;BME280;1994;48.640;8.894;2023-03-19T05:13:17;95980.66;;;9.97;89.91
3960;BME280;1994;48.640;8.894;2023-03-19T05:15:43;95982.66;;;9.95;89.04
3960;BME280;1994;48.640;8.894;2023-03-19T05:18:11;95975.88;;;9.77;89.04
3960;BME280;1994;48.640;8.894;2023-03-19T05:20:38;95984.91;;;9.75;89.14
3960;BME280;1994;48.640;8.894;2023-03-19T05:23:04;95984.81;;;9.70;89.09
3960;BME280;1994;48.640;8.894;2023-03-19T05:25:30;95984.34;;;9.73;90.15
3960;BME280;1994;48.640;8.894;2023-03-19T05:27:57;95983.91;;;9.76;90.00
3960;BME280;1994;48.640;8.894;2023-03-19T05:30:22;95984.84;;;9.86;89.79
3960;BME280;1994;48.640;8.894;2023-03-19T05:32:49;95983.41;;;9.79;89.23
3960;BME280;1994;48.640;8.894;2023-03-19T05:35:15;95984.16;;;9.63;89.60
3960;BME280;1994;48.640;8.894;2023-03-19T05:37:41;95983.72;;;9.82;89.38
3960;BME280;1994;48.640;8.894;2023-03-19T05:40:08;95987.81;;;9.78;89.46
3960;BME280;1994;48.640;8.894;2023-03-19T05:42:34;95997.56;;;9.88;88.79
3960;BME280;1994;48.640;8.894;2023-03-19T05:45:00;96001.72;;;9.61;90.04
3960;BME280;1994;48.640;8.894;2023-03-19T05:47:26;96012.06;;;9.61;90.15
3960;BME280;1994;48.640;8.894;2023-03-19T05:49:52;95999.09;;;9.72;90.52
3960;BME280;1994;48.640;8.894;2023-03-19T05:52:18;96001.28;;;9.80;90.38
3960;BME280;1994;48.640;8.894;2023-03-19T05:54:43;96007.91;;;9.88;90.05
3960;BME280;1994;48.640;8.894;2023-03-19T05:57:14;96003.84;;;9.92;89.54
3960;BME280;1994;48.640;8.894;2023-03-19T05:59:41;96012.16;;;9.94;89.25
3960;BME280;1994;48.640;8.894;2023-03-19T06:02:07;96003.59;;;10.05;88.86
3960;BME280;1994;48.640;8.894;2023-03-19T06:04:33;96017.53;;;10.04;88.41
3960;BME280;1994;48.640;8.894;2023-03-19T06:06:59;96025.28;;;9.76;88.11
3960;BME280;1994;48.640;8.894;2023-03-19T06:09:25;96023.25;;;9.78;88.17
3960;BME280;1994;48.640;8.894;2023-03-19T06:11:50;96027.38;;;9.79;88.06
3960;BME280;1994;48.640;8.894;2023-03-19T06:14:16;96025.28;;;9.76;87.97
3960;BME280;1994;48.640;8.894;2023-03-19T06:16:42;96026.38;;;9.80;87.83
3960;BME280;1994;48.640;8.894;2023-03-19T06:19:08;96024.34;;;9.82;87.72
3960;BME280;1994;48.640;8.894;2023-03-19T06:21:33;96022.13;;;9.74;87.66
3960;BME280;1994;48.640;8.894;2023-03-19T06:23:59;96022.78;;;9.81;87.98
3960;BME280;1994;48.640;8.894;2023-03-19T06:26:25;96027.38;;;9.79;87.87
3960;BME280;1994;48.640;8.894;2023-03-19T06:28:52;96026.84;;;9.77;87.67
3960;BME280;1994;48.640;8.894;2023-03-19T06:31:18;96031.31;;;9.81;87.36
3960;BME280;1994;48.640;8.894;2023-03-19T06:33:44;96030.66;;;9.86;87.09
3960;BME280;1994;48.640;8.894;2023-03-19T06:36:10;96026.28;;;9.75;87.64
3960;BME280;1994;48.640;8.894;2023-03-19T06:38:36;96019.44;;;9.69;87.83
3960;BME280;1994;48.640;8.894;2023-03-19T06:41:02;96024.34;;;9.82;87.27
3960;BME280;1994;48.640;8.894;2023-03-19T06:43:28;96023.25;;;9.78;87.63
3960;BME280;1994;48.640;8.894;2023-03-19T06:46:00;96023.13;;;9.73;87.75
3960;BME280;1994;48.640;8.894;2023-03-19T06:48:25;96023.50;;;9.65;88.62
3960;BME280;1994;48.640;8.894;2023-03-19T06:50:54;96021.47;;;9.67;88.64
3960;BME280;1994;48.640;8.894;2023-03-19T06:53:20;96023.34;;;9.83;87.94
3960;BME280;1994;48.640;8.894;2023-03-19T06:55:46;96019.78;;;9.72;87.75
3960;BME280;1994;48.640;8.894;2023-03-19T06:58:11;96026.38;;;9.80;87.02
3960;BME280;1994;48.640;8.894;2023-03-19T07:00:37;96027.50;;;9.84;87.87
3960;BME280;1994;48.640;8.894;2023-03-19T07:03:06;96030.66;;;9.86;87.40
3960;BME280;1994;48.640;8.894;2023-03-19T07:05:32;96029.72;;;9.92;86.96
3960;BME280;1994;48.640;8.894;2023-03-19T07:07:58;96026.38;;;9.80;87.10
3960;BME280;1994;48.640;8.894;2023-03-19T07:10:23;96030.16;;;9.89;87.34
3960;BME280;1994;48.640;8.894;2023-03-19T07:12:49;96027.28;;;9.74;88.09
3960;BME280;1994;48.640;8.894;2023-03-19T07:15:15;96032.94;;;9.71;88.60
3960;BME280;1994;48.640;8.894;2023-03-19T07:17:46;96041.34;;;9.78;89.11
3960;BME280;1994;48.640;8.894;2023-03-19T07:20:13;96042.38;;;9.77;89.21
3960;BME280;1994;48.640;8.894;2023-03-19T07:22:39;96038.41;;;9.86;88.76
3960;BME280;1994;48.640;8.894;2023-03-19T07:25:06;96044.03;;;9.83;89.17
3960;BME280;1994;48.640;8.894;2023-03-19T07:27:34;96045.66;;;10.00;88.62
3960;BME280;1994;48.640;8.894;2023-03-19T07:30:00;96041.94;;;10.08;88.55
3960;BME280;1994;48.640;8.894;2023-03-19T07:32:26;96048.53;;;10.15;88.86
3960;BME280;1994;48.640;8.894;2023-03-19T07:34:54;96047.19;;;10.13;89.22
3960;BME280;1994;48.640;8.894;2023-03-19T07:37:20;96046.75;;;10.16;88.51
3960;BME280;1994;48.640;8.894;2023-03-19T07:39:46;96055.22;;;10.28;89.01
3960;BME280;1994;48.640;8.894;2023-03-19T07:42:12;96052.72;;;10.33;88.75
3960;BME280;1994;48.640;8.894;2023-03-19T07:44:37;96053.22;;;10.30;88.93
3960;BME280;1994;48.640;8.894;2023-03-19T07:47:03;96053.22;;;10.30;88.58
3960;BME280;1994;48.640;8.894;2023-03-19T07:49:29;96053.84;;;10.37;88.69
3960;BME280;1994;48.640;8.894;2023-03-19T07:51:55;96053.31;;;10.35;88.20
3960;BME280;1994;48.640;8.894;2023-03-19T07:54:21;96053.38;;;10.40;88.50
3960;BME280;1994;48.640;8.894;2023-03-19T07:56:48;96053.06;;;10.53;87.06
3960;BME280;1994;48.640;8.894;2023-03-19T07:59:13;96051.50;;;10.52;85.83
3960;BME280;1994;48.640;8.894;2023-03-19T08:01:39;96051.81;;;10.55;86.59
3960;BME280;1994;48.640;8.894;2023-03-19T08:04:05;96058.44;;;10.63;85.84
3960;BME280;1994;48.640;8.894;2023-03-19T08:06:31;96053.16;;;10.91;85.41
3960;BME280;1994;48.640;8.894;2023-03-19T08:08:57;96057.13;;;11.15;85.11
3960;BME280;1994;48.640;8.894;2023-03-19T08:11:23;96056.88;;;10.95;84.34
3960;BME280;1994;48.640;8.894;2023-03-19T08:13:48;96054.31;;;11.00;85.09
3960;BME280;1994;48.640;8.894;2023-03-19T08:16:17;96054.00;;;11.13;85.33
3960;BME280;1994;48.640;8.894;2023-03-19T08:18:42;96053.66;;;11.26;84.40
3960;BME280;1994;48.640;8.894;2023-03-19T08:21:08;96061.38;;;11.21;82.77
3960;BME280;1994;48.640;8.894;2023-03-19T08:23:34;96057.22;;;11.20;82.85
3960;BME280;1994;48.640;8.894;2023-03-19T08:26:00;96055.06;;;11.33;81.88
3960;BME280;1994;48.640;8.894;2023-03-19T08:28:25;96066.19;;;11.67;82.10
3960;BME280;1994;48.640;8.894;2023-03-19T08:30:51;96058.25;;;11.78;80.35
3960;BME280;1994;48.640;8.894;2023-03-19T08:33:20;96061.31;;;11.97;80.90
3960;BME280;1994;48.640;8.894;2023-03-19T08:35:49;96062.84;;;11.93;80.66
3960;BME280;1994;48.640;8.894;2023-03-19T08:38:17;96061.56;;;12.17;79.85
3960;BME280;1994;48.640;8.894;2023-03-19T08:40:44;96057.28;;;12.32;77.91
3960;BME280;1994;48.640;8.894;2023-03-19T08:43:10;96055.16;;;12.56;77.09
3960;BME280;1994;48.640;8.894;2023-03-19T08:45:38;96059.75;;;12.75;76.56
3960;BME280;1994;48.640;8.894;2023-03-19T08:48:04;96059.94;;;12.69;76.83
3960;BME280;1994;48.640;8.894;2023-03-19T08:50:30;96061.03;;;12.73;77.22
3960;BME280;1994;48.640;8.894;2023-03-19T08:52:56;96069.28;;;12.65;75.66
3960;BME280;1994;48.640;8.894;2023-03-19T08:55:22;96061.72;;;12.63;75.94
3960;BME280;1994;48.640;8.894;2023-03-19T08:57:48;96064.81;;;12.55;75.54
3960;BME280;1994;48.640;8.894;2023-03-19T09:00:14;96065.38;;;12.62;76.45
3960;BME280;1994;48.640;8.894;2023-03-19T09:02:40;96072.16;;;12.37;75.69
3960;BME280;1994;48.640;8.894;2023-03-19T09:05:09;96064.63;;;12.67;75.16
3960;BME280;1994;48.640;8.894;2023-03-19T09:07:34;96063.72;;;13.61;72.86
3960;BME280;1994;48.640;8.894;2023-03-19T09:10:00;96062.88;;;14.07;69.75
3960;BME280;1994;48.640;8.894;2023-03-19T09:12:26;96067.72;;;14.80;68.01
3960;BME280;1994;48.640;8.894;2023-03-19T09:14:51;96062.25;;;14.86;65.25
3960;BME280;1994;48.640;8.894;2023-03-19T09:17:17;96068.72;;;15.24;64.40
3960;BME280;1994;48.640;8.894;2023-03-19T09:19:43;96060.59;;;16.67;60.41
3960;BME280;1994;48.640;8.894;2023-03-19T09:22:09;96066.63;;;17.30;57.34
3960;BME280;1994;48.640;8.894;2023-03-19T09:24:34;96071.41;;;18.22;55.47
3960;BME280;1994;48.640;8.894;2023-03-19T09:27:00;96069.16;;;17.68;55.81
3960;BME280;1994;48.640;8.894;2023-03-19T09:29:27;96075.22;;;18.53;53.03
3960;BME280;1994;48.640;8.894;2023-03-19T09:31:53;96069.56;;;16.95;56.32
3960;BME280;1994;48.640;8.894;2023-03-19T09:34:18;96063.47;;;16.71;57.98
3960;BME280;1994;48.640;8.894;2023-03-19T09:36:44;96064.59;;;16.55;58.74
3960;BME280;1994;48.640;8.894;2023-03-19T09:39:10;96064.34;;;16.08;57.76
3960;BME280;1994;48.640;8.894;2023-03-19T09:44:39;96064.16;;;16.38;58.55
3960;BME280;1994;48.640;8.894;2023-03-19T09:47:31;96066.38;;;16.16;58.96
3960;BME280;1994;48.640;8.894;2023-03-19T09:50:17;96053.94;;;15.98;58.87
3960;BME280;1994;48.640;8.894;2023-03-19T09:53:05;96053.59;;;17.25;56.85
3960;BME280;1994;48.640;8.894;2023-03-19T09:58:22;96050.38;;;18.64;50.62
3960;BME280;1994;48.640;8.894;2023-03-19T10:00:52;96049.81;;;17.36;51.38
3960;BME280;1994;48.640;8.894;2023-03-19T10:03:45;96052.56;;;17.21;52.25
3960;BME280;1994;48.640;8.894;2023-03-19T10:06:35;96049.91;;;17.78;51.84
3960;BME280;1994;48.640;8.894;2023-03-19T10:09:23;96049.22;;;17.91;51.14
3960;BME280;1994;48.640;8.894;2023-03-19T10:15:36;96041.75;;;17.61;51.23
3960;BME280;1994;48.640;8.894;2023-03-19T10:20:48;96044.56;;;17.36;50.09
3960;BME280;1994;48.640;8.894;2023-03-19T10:23:46;96042.81;;;18.02;49.20
3960;BME280;1994;48.640;8.894;2023-03-19T10:26:18;96038.56;;;18.06;49.86
3960;BME280;1994;48.640;8.894;2023-03-19T10:29:11;96048.84;;;17.55;48.96
3960;BME280;1994;48.640;8.894;2023-03-19T10:34:36;96047.53;;;16.24;49.41
3960;BME280;1994;48.640;8.894;2023-03-19T10:37:23;96037.78;;;17.35;48.26
3960;BME280;1994;48.640;8.894;2023-03-19T10:39:55;96038.16;;;17.52;47.32
3960;BME280;1994;48.640;8.894;2023-03-19T10:42:51;96030.88;;;17.91;45.50
3960;BME280;1994;48.640;8.894;2023-03-19T10:45:31;96034.03;;;18.30;45.03
3960;BME280;1994;48.640;8.894;2023-03-19T10:48:00;96035.25;;;18.19;46.54
3960;BME280;1994;48.640;8.894;2023-03-19T10:50:35;96037.47;;;17.88;45.87
3960;BME280;1994;48.640;8.894;2023-03-19T10:56:18;96030.06;;;16.63;49.17
3960;BME280;1994;48.640;8.894;2023-03-19T10:59:00;96024.91;;;16.48;50.66
3960;BME280;1994;48.640;8.894;2023-03-19T11:01:32;96040.63;;;16.38;50.55
3960;BME280;1994;48.640;8.894;2023-03-19T11:04:01;96023.38;;;16.47;50.39
3960;BME280;1994;48.640;8.894;2023-03-19T11:06:34;96034.63;;;15.89;51.72
3960;BME280;1994;48.640;8.894;2023-03-19T11:11:52;96022.16;;;16.68;50.33
3960;BME280;1994;48.640;8.894;2023-03-19T11:14:38;96035.75;;;16.70;50.81
3960;BME280;1994;48.640;8.894;2023-03-19T11:17:34;96025.69;;;16.00;51.89
3960;BME280;1994;48.640;8.894;2023-03-19T11:20:20;96032.47;;;16.06;53.19
3960;BME280;1994;48.640;8.894;2023-03-19T11:22:49;96025.06;;;15.69;53.96
3960;BME280;1994;48.640;8.894;2023-03-19T11:25:26;96013.22;;;15.92;52.88
3960;BME280;1994;48.640;8.894;2023-03-19T11:31:12;96016.44;;;15.69;53.61
3960;BME280;1994;48.640;8.894;2023-03-19T11:34:07;96016.91;;;15.81;53.05
3960;BME280;1994;48.640;8.894;2023-03-19T11:39:55;95999.94;;;16.27;52.58
3960;BME280;1994;48.640;8.894;2023-03-19T11:42:47;96008.84;;;16.26;53.10
3960;BME280;1994;48.640;8.894;2023-03-19T11:53:37;95993.16;;;16.26;52.38
3960;BME280;1994;48.640;8.894;2023-03-19T12:05:30;95991.78;;;17.76;49.82
3960;BME280;1994;48.640;8.894;2023-03-19T12:08:29;95982.88;;;17.53;49.14
3960;BME280;1994;48.640;8.894;2023-03-19T12:26:04;95992.34;;;15.87;52.86
3960;BME280;1994;48.640;8.894;2023-03-19T12:28:58;95994.78;;;16.12;51.84
3960;BME280;1994;48.640;8.894;2023-03-19T12:32:05;95997.91;;;16.19;50.99
3960;BME280;1994;48.640;8.894;2023-03-19T12:34:56;95986.06;;;16.31;50.72
3960;BME280;1994;48.640;8.894;2023-03-19T12:37:34;95990.09;;;16.14;51.48
3960;BME280;1994;48.640;8.894;2023-03-19T12:40:31;95989.91;;;16.44;52.00
3960;BME280;1994;48.640;8.894;2023-03-19T12:43:05;95986.78;;;16.42;51.20
3960;BME280;1994;48.640;8.894;2023-03-19T12:45:45;95993.00;;;16.51;52.00
3960;BME280;1994;48.640;8.894;2023-03-19T12:48:26;95993.25;;;16.54;50.39
3960;BME280;1994;48.640;8.894;2023-03-19T12:50:57;95991.56;;;16.97;49.40
3960;BME280;1994;48.640;8.894;2023-03-19T12:56:54;95987.88;;;16.31;51.63
3960;BME280;1994;48.640;8.894;2023-03-19T13:02:51;95990.69;;;16.01;51.94
3960;BME280;1994;48.640;8.894;2023-03-19T13:06:05;95983.91;;;16.00;51.14
3960;BME280;1994;48.640;8.894;2023-03-19T13:09:11;95980.66;;;16.18;50.30
3960;BME280;1994;48.640;8.894;2023-03-19T13:11:50;95984.56;;;16.20;50.46
3960;BME280;1994;48.640;8.894;2023-03-19T13:17:24;95986.53;;;16.72;48.81
3960;BME280;1994;48.640;8.894;2023-03-19T13:19:53;95992.75;;;16.81;48.95
3960;BME280;1994;48.640;8.894;2023-03-19T13:22:31;95984.22;;;16.99;49.21
3960;BME280;1994;48.640;8.894;2023-03-19T13:25:00;95995.19;;;17.01;49.29
3960;BME280;1994;48.640;8.894;2023-03-19T13:27:30;95989.59;;;16.84;49.36
3960;BME280;1994;48.640;8.894;2023-03-19T13:32:49;95991.03;;;16.28;51.04
3960;BME280;1994;48.640;8.894;2023-03-19T13:35:50;95988.75;;;16.60;50.84
3960;BME280;1994;48.640;8.894;2023-03-19T13:38:39;95988.28;;;16.53;50.49
3960;BME280;1994;48.640;8.894;2023-03-19T13:43:57;95988.66;;;15.93;52.13
3960;BME280;1994;48.640;8.894;2023-03-19T13:46:38;95992.94;;;15.69;53.15
3960;BME280;1994;48.640;8.894;2023-03-19T13:49:22;95993.97;;;15.68;53.50
3960;BME280;1994;48.640;8.894;2023-03-19T13:52:01;95993.00;;;15.54;55.13
3960;BME280;1994;48.640;8.894;2023-03-19T13:54:40;95993.53;;;15.46;55.58
3960;BME280;1994;48.640;8.894;2023-03-19T13:59:42;96002.44;;;15.35;56.20
3960;BME280;1994;48.640;8.894;2023-03-19T14:05:00;95993.63;;;15.16;56.51
3960;BME280;1994;48.640;8.894;2023-03-19T14:07:36;95990.94;;;15.41;57.53
3960;BME280;1994;48.640;8.894;2023-03-19T14:10:04;95995.16;;;15.37;56.48
3960;BME280;1994;48.640;8.894;2023-03-19T14:12:36;95986.78;;;15.35;56.91
3960;BME280;1994;48.640;8.894;2023-03-19T14:26:04;95968.03;;;15.13;55.42
3960;BME280;1994;48.640;8.894;2023-03-19T14:28:54;95974.03;;;15.23;56.13
3960;BME280;1994;48.640;8.894;2023-03-19T14:31:49;95974.81;;;15.14;55.46
3960;BME280;1994;48.640;8.894;2023-03-19T14:34:26;95970.13;;;15.21;55.43
3960;BME280;1994;48.640;8.894;2023-03-19T14:39:42;95974.53;;;15.20;56.45
3960;BME280;1994;48.640;8.894;2023-03-19T14:42:30;95966.47;;;15.22;56.82
3960;BME280;1994;48.640;8.894;2023-03-19T14:46:18;95975.34;;;15.21;57.70
3960;BME280;1994;48.640;8.894;2023-03-19T14:54:58;95981.91;;;14.98;57.17
3960;BME280;1994;48.640;8.894;2023-03-19T14:57:30;95972.25;;;15.09;57.75
3960;BME280;1994;48.640;8.894;2023-03-19T14:59:59;95980.25;;;15.27;57.62
3960;BME280;1994;48.640;8.894;2023-03-19T15:02:37;95975.91;;;14.98;58.39
3960;BME280;1994;48.640;8.894;2023-03-19T15:05:12;95974.31;;;15.07;59.79
3960;BME280;1994;48.640;8.894;2023-03-19T15:07:44;95978.00;;;14.96;57.83
3960;BME280;1994;48.640;8.894;2023-03-19T15:10:27;95968.06;;;15.03;58.56
3960;BME280;1994;48.640;8.894;2023-03-19T15:19:00;95978.78;;;15.06;58.50
3960;BME280;1994;48.640;8.894;2023-03-19T15:21:29;95981.09;;;15.08;58.45
3960;BME280;1994;48.640;8.894;2023-03-19T15:23:59;95977.72;;;15.02;57.66
3960;BME280;1994;48.640;8.894;2023-03-19T15:26:34;95977.94;;;15.21;57.71
3960;BME280;1994;48.640;8.894;2023-03-19T15:29:00;95984.22;;;15.10;58.04
3960;BME280;1994;48.640;8.894;2023-03-19T15:34:26;95985.44;;;15.52;58.38
3960;BME280;1994;48.640;8.894;2023-03-19T15:37:07;95988.00;;;15.67;57.04